sensor_id;sensor_type;location;lat;lon;timestamp;pressure;altitude;pressure_sealevel;temperature;humidity
20656;BME280;10487;53.320;8.672;2023-04-01T00:00:44;99128.31;;;7.83;60.72
20656;BME280;10487;53.320;8.672;2023-04-01T00:03:47;99134.88;;;7.79;60.59
20656;BME280;10487;53.320;8.672;2023-04-01T00:06:49;99134.19;;;7.77;60.79
20656;BME280;10487;53.320;8.672;2023-04-01T00:09:51;99131.66;;;7.76;60.64
20656;BME280;10487;53.320;8.672;2023-04-01T00:12:52;99127.31;;;7.75;60.85
20656;BME280;10487;53.320;8.672;2023-04-01T00:15:55;99120.31;;;7.74;60.81
20656;BME280;10487;53.320;8.672;2023-04-01T00:18:57;99127.44;;;7.73;60.66
20656;BME280;10487;53.320;8.672;2023-04-01T00:21:59;99125.03;;;7.70;60.87
20656;BME280;10487;53.320;8.672;2023-04-01T00:25:01;99130.34;;;7.70;60.97
20656;BME280;10487;53.320;8.672;2023-04-01T00:28:02;99130.34;;;7.70;60.73
20656;BME280;10487;53.320;8.672;2023-04-01T00:31:08;99125.03;;;7.70;61.03
20656;BME280;10487;53.320;8.672;2023-04-01T00:34:10;99118.94;;;7.70;60.77
20656;BME280;10487;53.320;8.672;2023-04-01T00:37:11;99132.19;;;7.70;61.03
20656;BME280;10487;53.320;8.672;2023-04-01T00:40:33;99128.56;;;7.71;60.98
20656;BME280;10487;53.320;8.672;2023-04-01T00:43:34;99131.19;;;7.71;61.04
20656;BME280;10487;53.320;8.672;2023-04-01T00:46:36;99135.66;;;7.70;60.94
20656;BME280;10487;53.320;8.672;2023-04-01T00:49:44;99126.75;;;7.71;60.85
20656;BME280;10487;53.320;8.672;2023-04-01T00:52:46;99131.34;;;7.69;60.92
20656;BME280;10487;53.320;8.672;2023-04-01T00:55:57;99126.75;;;7.71;60.95
20656;BME280;10487;53.320;8.672;2023-04-01T00:59:04;99123.94;;;7.73;60.99
20656;BME280;10487;53.320;8.672;2023-04-01T01:02:12;99129.13;;;7.74;61.22
20656;BME280;10487;53.320;8.672;2023-04-01T01:05:15;99135.16;;;7.76;60.97
20656;BME280;10487;53.320;8.672;2023-04-01T01:11:45;99127.03;;;7.78;61.05
20656;BME280;10487;53.320;8.672;2023-04-01T01:25:04;99126.47;;;7.74;61.16
20656;BME280;10487;53.320;8.672;2023-04-01T01:32:11;99130.34;;;7.70;61.04
20656;BME280;10487;53.320;8.672;2023-04-01T01:35:35;99126.75;;;7.71;61.21
20656;BME280;10487;53.320;8.672;2023-04-01T01:38:38;99128.69;;;7.69;61.09
20656;BME280;10487;53.320;8.672;2023-04-01T01:41:42;99133.00;;;7.70;61.38
20656;BME280;10487;53.320;8.672;2023-04-01T01:44:46;99139.31;;;7.69;61.39
20656;BME280;10487;53.320;8.672;2023-04-01T01:47:49;99131.34;;;7.69;61.41
20656;BME280;10487;53.320;8.672;2023-04-01T01:50:52;99135.66;;;7.70;61.25
20656;BME280;10487;53.320;8.672;2023-04-01T01:53:54;99138.31;;;7.70;61.31
20656;BME280;10487;53.320;8.672;2023-04-01T01:57:04;99134.00;;;7.69;61.26
20656;BME280;10487;53.320;8.672;2023-04-01T02:00:09;99133.16;;;7.69;61.27
20656;BME280;10487;53.320;8.672;2023-04-01T02:03:17;99134.84;;;7.70;61.53
20656;BME280;10487;53.320;8.672;2023-04-01T02:06:22;99141.72;;;7.72;61.39
20656;BME280;10487;53.320;8.672;2023-04-01T02:09:24;99137.50;;;7.70;61.41
20656;BME280;10487;53.320;8.672;2023-04-01T02:12:27;99142.66;;;7.71;61.54
20656;BME280;10487;53.320;8.672;2023-04-01T02:15:33;99138.31;;;7.70;61.29
20656;BME280;10487;53.320;8.672;2023-04-01T02:18:39;99147.13;;;7.71;61.33
20656;BME280;10487;53.320;8.672;2023-04-01T02:21:42;99138.31;;;7.70;61.37
20656;BME280;10487;53.320;8.672;2023-04-01T02:24:45;99147.13;;;7.71;61.49
20656;BME280;10487;53.320;8.672;2023-04-01T02:27:47;99142.66;;;7.71;61.49
20656;BME280;10487;53.320;8.672;2023-04-01T02:30:49;99147.97;;;7.71;61.58
20656;BME280;10487;53.320;8.672;2023-04-01T02:33:51;99152.31;;;7.72;61.47
20656;BME280;10487;53.320;8.672;2023-04-01T02:36:55;99146.03;;;7.73;61.45
20656;BME280;10487;53.320;8.672;2023-04-01T02:40:01;99155.81;;;7.73;61.63
20656;BME280;10487;53.320;8.672;2023-04-01T02:43:03;99154.97;;;7.72;61.58
20656;BME280;10487;53.320;8.672;2023-04-01T02:46:04;99155.09;;;7.71;61.58
20656;BME280;10487;53.320;8.672;2023-04-01T02:49:06;99157.63;;;7.72;61.58
20656;BME280;10487;53.320;8.672;2023-04-01T02:52:08;99154.97;;;7.72;61.56
20656;BME280;10487;53.320;8.672;2023-04-01T02:55:09;99163.75;;;7.73;61.68
20656;BME280;10487;53.320;8.672;2023-04-01T02:58:11;99155.81;;;7.73;61.59
20656;BME280;10487;53.320;8.672;2023-04-01T03:01:13;99161.09;;;7.73;61.54
20656;BME280;10487;53.320;8.672;2023-04-01T03:04:15;99161.09;;;7.73;61.61
20656;BME280;10487;53.320;8.672;2023-04-01T03:07:16;99168.25;;;7.72;61.62
20656;BME280;10487;53.320;8.672;2023-04-01T03:10:18;99171.03;;;7.71;61.60
20656;BME280;10487;53.320;8.672;2023-04-01T03:13:20;99174.38;;;7.73;61.61
20656;BME280;10487;53.320;8.672;2023-04-01T03:16:22;99174.38;;;7.73;61.68
20656;BME280;10487;53.320;8.672;2023-04-01T03:19:23;99177.19;;;7.71;61.64
20656;BME280;10487;53.320;8.672;2023-04-01T03:22:25;99179.13;;;7.69;61.66
20656;BME280;10487;53.320;8.672;2023-04-01T03:25:27;99181.78;;;7.69;61.55
20656;BME280;10487;53.320;8.672;2023-04-01T03:28:29;99171.16;;;7.69;61.85
20656;BME280;10487;53.320;8.672;2023-04-01T03:31:31;99179.00;;;7.71;61.87
20656;BME280;10487;53.320;8.672;2023-04-01T03:34:33;99185.16;;;7.71;61.86
20656;BME280;10487;53.320;8.672;2023-04-01T03:37:34;99181.66;;;7.71;61.88
20656;BME280;10487;53.320;8.672;2023-04-01T03:40:36;99186.09;;;7.70;61.92
20656;BME280;10487;53.320;8.672;2023-04-01T03:43:39;99189.59;;;7.71;61.98
20656;BME280;10487;53.320;8.672;2023-04-01T03:46:41;99186.09;;;7.70;61.93
20656;BME280;10487;53.320;8.672;2023-04-01T03:49:43;99189.50;;;7.72;61.74
20656;BME280;10487;53.320;8.672;2023-04-01T03:52:44;99193.81;;;7.73;61.93
20656;BME280;10487;53.320;8.672;2023-04-01T03:55:46;99199.00;;;7.75;62.03
20656;BME280;10487;53.320;8.672;2023-04-01T03:58:48;99199.81;;;7.75;61.76
20656;BME280;10487;53.320;8.672;2023-04-01T04:01:49;99200.69;;;7.76;61.93
20656;BME280;10487;53.320;8.672;2023-04-01T04:04:51;99199.00;;;7.75;61.97
20656;BME280;10487;53.320;8.672;2023-04-01T04:07:53;99200.81;;;7.74;61.74
20656;BME280;10487;53.320;8.672;2023-04-01T04:10:55;99193.81;;;7.73;62.17
20656;BME280;10487;53.320;8.672;2023-04-01T04:13:57;99208.91;;;7.73;61.97
20656;BME280;10487;53.320;8.672;2023-04-01T04:16:58;99210.59;;;7.74;61.99
20656;BME280;10487;53.320;8.672;2023-04-01T04:20:00;99214.19;;;7.73;61.93
20656;BME280;10487;53.320;8.672;2023-04-01T04:23:02;99210.00;;;7.70;62.04
20656;BME280;10487;53.320;8.672;2023-04-01T04:26:06;99212.66;;;7.70;62.05
20656;BME280;10487;53.320;8.672;2023-04-01T04:29:08;99215.44;;;7.69;61.98
20656;BME280;10487;53.320;8.672;2023-04-01T04:32:09;99218.25;;;7.67;61.82
20656;BME280;10487;53.320;8.672;2023-04-01T04:35:11;99225.22;;;7.68;62.13
20656;BME280;10487;53.320;8.672;2023-04-01T04:38:13;99234.03;;;7.69;61.99
20656;BME280;10487;53.320;8.672;2023-04-01T04:41:16;99233.06;;;7.70;62.09
20656;BME280;10487;53.320;8.672;2023-04-01T04:44:19;99235.72;;;7.70;62.07
20656;BME280;10487;53.320;8.672;2023-04-01T04:47:21;99241.03;;;7.70;62.07
20656;BME280;10487;53.320;8.672;2023-04-01T04:50:23;99239.47;;;7.67;61.92
20656;BME280;10487;53.320;8.672;2023-04-01T04:53:25;99239.75;;;7.64;62.09
20656;BME280;10487;53.320;8.672;2023-04-01T04:56:27;99250.34;;;7.64;62.03
20656;BME280;10487;53.320;8.672;2023-04-01T04:59:29;99252.16;;;7.64;61.98
20656;BME280;10487;53.320;8.672;2023-04-01T05:02:31;99256.63;;;7.63;62.01
20656;BME280;10487;53.320;8.672;2023-04-01T05:05:33;99252.16;;;7.64;62.12
20656;BME280;10487;53.320;8.672;2023-04-01T05:08:36;99258.31;;;7.64;62.02
20656;BME280;10487;53.320;8.672;2023-04-01T05:11:38;99259.97;;;7.65;62.09
20656;BME280;10487;53.320;8.672;2023-04-01T05:14:40;99252.16;;;7.64;62.04
20656;BME280;10487;53.320;8.672;2023-04-01T05:17:42;99259.16;;;7.65;62.05
20656;BME280;10487;53.320;8.672;2023-04-01T05:20:51;99269.78;;;7.65;62.18
20656;BME280;10487;53.320;8.672;2023-04-01T05:23:53;99267.25;;;7.63;62.11
20656;BME280;10487;53.320;8.672;2023-04-01T05:26:54;99265.59;;;7.62;62.24
20656;BME280;10487;53.320;8.672;2023-04-01T05:29:57;99265.59;;;7.62;62.12
20656;BME280;10487;53.320;8.672;2023-04-01T05:32:59;99272.69;;;7.62;62.09
20656;BME280;10487;53.320;8.672;2023-04-01T05:36:12;99279.66;;;7.63;62.15
20656;BME280;10487;53.320;8.672;2023-04-01T05:39:14;99279.81;;;7.61;62.12
20656;BME280;10487;53.320;8.672;2023-04-01T05:42:16;99282.47;;;7.61;62.30
20656;BME280;10487;53.320;8.672;2023-04-01T05:45:18;99284.28;;;7.61;62.16
20656;BME280;10487;53.320;8.672;2023-04-01T05:48:20;99285.13;;;7.61;62.19
20656;BME280;10487;53.320;8.672;2023-04-01T05:51:21;99289.47;;;7.62;62.15
20656;BME280;10487;53.320;8.672;2023-04-01T05:54:23;99287.78;;;7.61;62.08
20656;BME280;10487;53.320;8.672;2023-04-01T05:57:25;99291.28;;;7.62;62.19
20656;BME280;10487;53.320;8.672;2023-04-01T06:00:26;99304.56;;;7.62;62.21
20656;BME280;10487;53.320;8.672;2023-04-01T06:03:28;99304.56;;;7.62;62.11
20656;BME280;10487;53.320;8.672;2023-04-01T06:06:31;99304.66;;;7.60;62.21
20656;BME280;10487;53.320;8.672;2023-04-01T06:09:33;99313.47;;;7.61;62.22
20656;BME280;10487;53.320;8.672;2023-04-01T06:12:49;99313.47;;;7.61;62.23
20656;BME280;10487;53.320;8.672;2023-04-01T06:16:07;99320.59;;;7.60;62.08
20656;BME280;10487;53.320;8.672;2023-04-01T06:19:33;99319.78;;;7.60;62.21
20656;BME280;10487;53.320;8.672;2023-04-01T06:22:53;99327.84;;;7.58;62.10
20656;BME280;10487;53.320;8.672;2023-04-01T06:29:43;99337.63;;;7.58;62.12
20656;BME280;10487;53.320;8.672;2023-04-01T06:32:55;99337.63;;;7.58;62.33
20656;BME280;10487;53.320;8.672;2023-04-01T06:36:39;99342.94;;;7.58;62.32
20656;BME280;10487;53.320;8.672;2023-04-01T06:39:36;99340.16;;;7.59;62.34
20656;BME280;10487;53.320;8.672;2023-04-01T06:42:45;99345.59;;;7.58;62.24
20656;BME280;10487;53.320;8.672;2023-04-01T06:46:09;99346.41;;;7.58;62.44
20656;BME280;10487;53.320;8.672;2023-04-01T06:55:50;99357.63;;;7.62;62.32
20656;BME280;10487;53.320;8.672;2023-04-01T06:58:58;99363.66;;;7.64;62.25
20656;BME280;10487;53.320;8.672;2023-04-01T07:05:11;99366.16;;;7.65;62.46
20656;BME280;10487;53.320;8.672;2023-04-01T07:08:22;99368.81;;;7.65;62.42
20656;BME280;10487;53.320;8.672;2023-04-01T07:11:29;99367.88;;;7.66;62.34
20656;BME280;10487;53.320;8.672;2023-04-01T07:14:35;99381.00;;;7.68;62.48
20656;BME280;10487;53.320;8.672;2023-04-01T07:17:39;99377.53;;;7.67;62.55
20656;BME280;10487;53.320;8.672;2023-04-01T07:20:42;99384.50;;;7.68;62.50
20656;BME280;10487;53.320;8.672;2023-04-01T07:23:45;99390.53;;;7.70;62.59
20656;BME280;10487;53.320;8.672;2023-04-01T07:26:53;99391.38;;;7.71;62.29
20656;BME280;10487;53.320;8.672;2023-04-01T07:29:57;99396.56;;;7.72;62.45
20656;BME280;10487;53.320;8.672;2023-04-01T07:33:04;99396.44;;;7.74;62.29
20656;BME280;10487;53.320;8.672;2023-04-01T07:36:14;99402.59;;;7.74;62.51
20656;BME280;10487;53.320;8.672;2023-04-01T07:39:34;99411.28;;;7.76;62.54
20656;BME280;10487;53.320;8.672;2023-04-01T07:52:52;99425.25;;;7.78;62.49
20656;BME280;10487;53.320;8.672;2023-04-01T08:09:22;99451.56;;;7.81;62.66
20656;BME280;10487;53.320;8.672;2023-04-01T08:15:49;99453.53;;;8.00;62.88
20656;BME280;10487;53.320;8.672;2023-04-01T08:22:27;99467.66;;;8.00;62.62
20656;BME280;10487;53.320;8.672;2023-04-01T08:25:32;99470.56;;;7.97;62.67
20656;BME280;10487;53.320;8.672;2023-04-01T08:28:57;99477.81;;;7.95;62.71
20656;BME280;10487;53.320;8.672;2023-04-01T08:32:11;99489.69;;;7.91;62.56
20656;BME280;10487;53.320;8.672;2023-04-01T08:35:21;99493.91;;;7.83;62.47
20656;BME280;10487;53.320;8.672;2023-04-01T08:38:34;99486.09;;;7.70;62.65
20656;BME280;10487;53.320;8.672;2023-04-01T09:01:43;99537.56;;;7.03;63.01
20656;BME280;10487;53.320;8.672;2023-04-01T09:04:57;99540.19;;;6.92;62.95
20656;BME280;10487;53.320;8.672;2023-04-01T09:15:01;99554.34;;;6.68;63.02
20656;BME280;10487;53.320;8.672;2023-04-01T09:18:20;99559.66;;;6.68;63.19
20656;BME280;10487;53.320;8.672;2023-04-01T09:28:13;99569.00;;;6.50;62.99
20656;BME280;10487;53.320;8.672;2023-04-01T09:34:34;99579.31;;;6.42;63.29
20656;BME280;10487;53.320;8.672;2023-04-01T09:47:46;99609.38;;;6.30;63.27
20656;BME280;10487;53.320;8.672;2023-04-01T09:51:05;99612.34;;;6.26;63.17
20656;BME280;10487;53.320;8.672;2023-04-01T10:17:58;99671.66;;;5.99;63.24
20656;BME280;10487;53.320;8.672;2023-04-01T11:15:04;99745.69;;;5.38;63.44
20656;BME280;10487;53.320;8.672;2023-04-01T11:21:50;99757.84;;;5.40;63.43
20656;BME280;10487;53.320;8.672;2023-04-01T11:34:59;99772.03;;;5.39;63.45
20656;BME280;10487;53.320;8.672;2023-04-01T11:41:56;99793.41;;;5.36;63.25
20656;BME280;10487;53.320;8.672;2023-04-01T11:51:45;99821.13;;;5.31;63.54
20656;BME280;10487;53.320;8.672;2023-04-01T11:55:14;99806.97;;;5.32;63.44
20656;BME280;10487;53.320;8.672;2023-04-01T12:01:33;99827.81;;;5.36;63.34
20656;BME280;10487;53.320;8.672;2023-04-01T12:11:48;99838.38;;;5.36;63.48
20656;BME280;10487;53.320;8.672;2023-04-01T12:21:45;99863.13;;;5.35;63.39
20656;BME280;10487;53.320;8.672;2023-04-01T12:45:07;99892.84;;;5.26;63.45
20656;BME280;10487;53.320;8.672;2023-04-01T12:48:37;99904.34;;;5.25;63.46
20656;BME280;10487;53.320;8.672;2023-04-01T12:51:57;99907.19;;;5.22;63.37
20656;BME280;10487;53.320;8.672;2023-04-01T12:55:23;99911.66;;;5.22;63.40
20656;BME280;10487;53.320;8.672;2023-04-01T13:15:52;99949.34;;;5.11;63.36
20656;BME280;10487;53.320;8.672;2023-04-01T13:19:07;99962.75;;;5.08;63.43
20656;BME280;10487;53.320;8.672;2023-04-01T13:28:43;99967.84;;;5.11;63.57
20656;BME280;10487;53.320;8.672;2023-04-01T13:35:26;99969.75;;;5.09;63.52
20656;BME280;10487;53.320;8.672;2023-04-01T13:38:56;99977.75;;;5.08;63.57
20656;BME280;10487;53.320;8.672;2023-04-01T13:45:33;99988.50;;;5.05;63.52
20656;BME280;10487;53.320;8.672;2023-04-01T13:52:51;100007.13;;;4.89;63.45
20656;BME280;10487;53.320;8.672;2023-04-01T14:10:07;100039.41;;;4.66;63.64
20656;BME280;10487;53.320;8.672;2023-04-01T14:13:46;100043.19;;;4.62;63.69
20656;BME280;10487;53.320;8.672;2023-04-01T14:23:31;100061.94;;;4.57;63.77
20656;BME280;10487;53.320;8.672;2023-04-01T14:26:57;100084.13;;;4.55;63.62
20656;BME280;10487;53.320;8.672;2023-04-01T14:33:58;100080.31;;;4.45;63.75
20656;BME280;10487;53.320;8.672;2023-04-01T14:50:02;100120.06;;;4.28;63.69
20656;BME280;10487;53.320;8.672;2023-04-01T14:53:16;100124.06;;;4.19;63.70
20656;BME280;10487;53.320;8.672;2023-04-01T14:57:09;100131.41;;;4.14;63.81
20656;BME280;10487;53.320;8.672;2023-04-01T15:00:14;100129.78;;;4.11;63.91
20656;BME280;10487;53.320;8.672;2023-04-01T15:03:22;100140.34;;;4.11;63.91
20656;BME280;10487;53.320;8.672;2023-04-01T15:06:41;100134.31;;;4.09;63.83
20656;BME280;10487;53.320;8.672;2023-04-01T15:24:22;100165.66;;;4.00;63.68
20656;BME280;10487;53.320;8.672;2023-04-01T15:44:35;100207.44;;;3.92;63.76
20656;BME280;10487;53.320;8.672;2023-04-01T15:47:42;100219.78;;;3.91;63.90
20656;BME280;10487;53.320;8.672;2023-04-01T15:51:20;100219.03;;;3.89;63.77
20656;BME280;10487;53.320;8.672;2023-04-01T16:07:55;100255.88;;;3.75;63.82
20656;BME280;10487;53.320;8.672;2023-04-01T16:17:59;100279.63;;;3.75;63.80
20656;BME280;10487;53.320;8.672;2023-04-01T16:21:13;100276.13;;;3.75;63.87
20656;BME280;10487;53.320;8.672;2023-04-01T16:30:40;100298.34;;;3.71;63.77
20656;BME280;10487;53.320;8.672;2023-04-01T16:33:51;100301.13;;;3.68;63.88
20656;BME280;10487;53.320;8.672;2023-04-01T16:37:11;100312.69;;;3.65;63.63
20656;BME280;10487;53.320;8.672;2023-04-01T16:40:40;100307.47;;;3.64;63.79
20656;BME280;10487;53.320;8.672;2023-04-01T16:43:52;100323.25;;;3.65;63.79
20656;BME280;10487;53.320;8.672;2023-04-01T16:46:59;100335.59;;;3.65;63.48
20656;BME280;10487;53.320;8.672;2023-04-01T16:50:38;100341.00;;;3.62;63.80
20656;BME280;10487;53.320;8.672;2023-04-01T16:53:45;100344.66;;;3.59;63.77
20656;BME280;10487;53.320;8.672;2023-04-01T17:03:57;100373.38;;;3.48;63.70
20656;BME280;10487;53.320;8.672;2023-04-01T17:10:53;100377.56;;;3.52;63.86
20656;BME280;10487;53.320;8.672;2023-04-01T17:20:39;100405.09;;;3.46;63.75
20656;BME280;10487;53.320;8.672;2023-04-01T17:23:51;100410.47;;;3.45;63.56
20656;BME280;10487;53.320;8.672;2023-04-01T17:36:54;100436.44;;;3.35;63.69
20656;BME280;10487;53.320;8.672;2023-04-01T17:44:12;100452.72;;;3.43;63.71
20656;BME280;10487;53.320;8.672;2023-04-01T17:50:53;100473.38;;;3.35;63.66
20656;BME280;10487;53.320;8.672;2023-04-01T17:54:30;100485.97;;;3.29;63.57
20656;BME280;10487;53.320;8.672;2023-04-01T18:04:28;100509.56;;;3.13;63.64
20656;BME280;10487;53.320;8.672;2023-04-01T18:07:43;100519.38;;;3.10;63.71
20656;BME280;10487;53.320;8.672;2023-04-01T18:14:18;100531.22;;;3.01;63.84
20656;BME280;10487;53.320;8.672;2023-04-01T18:17:45;100541.81;;;3.00;63.86
20656;BME280;10487;53.320;8.672;2023-04-01T18:21:00;100559.41;;;2.99;63.75
20656;BME280;10487;53.320;8.672;2023-04-01T18:27:40;100571.94;;;2.94;63.41
20656;BME280;10487;53.320;8.672;2023-04-01T18:30:51;100578.91;;;2.95;63.56
20656;BME280;10487;53.320;8.672;2023-04-01T18:37:43;100598.38;;;2.93;63.51
20656;BME280;10487;53.320;8.672;2023-04-01T18:41:14;100599.44;;;2.89;63.48
20656;BME280;10487;53.320;8.672;2023-04-01T18:51:13;100625.25;;;2.80;63.50
20656;BME280;10487;53.320;8.672;2023-04-01T18:54:40;100634.06;;;2.79;63.56
20656;BME280;10487;53.320;8.672;2023-04-01T18:58:05;100642.09;;;2.76;63.52
20656;BME280;10487;53.320;8.672;2023-04-01T19:05:20;100655.63;;;2.69;63.58
20656;BME280;10487;53.320;8.672;2023-04-01T19:15:57;100680.47;;;2.63;63.59
20656;BME280;10487;53.320;8.672;2023-04-01T19:38:39;100719.53;;;2.52;63.74
20656;BME280;10487;53.320;8.672;2023-04-01T19:45:30;100737.25;;;2.49;63.40
20656;BME280;10487;53.320;8.672;2023-04-01T19:48:40;100747.97;;;2.44;63.44
20656;BME280;10487;53.320;8.672;2023-04-01T19:52:00;100746.34;;;2.42;63.67
20656;BME280;10487;53.320;8.672;2023-04-01T19:58:33;100767.25;;;2.45;63.57
20656;BME280;10487;53.320;8.672;2023-04-01T20:05:04;100782.19;;;2.44;63.54
20656;BME280;10487;53.320;8.672;2023-04-01T20:11:39;100798.25;;;2.38;63.46
20656;BME280;10487;53.320;8.672;2023-04-01T20:14:53;100799.31;;;2.34;63.34
20656;BME280;10487;53.320;8.672;2023-04-01T20:18:00;100806.38;;;2.32;63.52
20656;BME280;10487;53.320;8.672;2023-04-01T20:21:06;100815.25;;;2.30;63.25
20656;BME280;10487;53.320;8.672;2023-04-01T20:27:32;100839.94;;;2.27;63.15
20656;BME280;10487;53.320;8.672;2023-04-01T20:33:52;100843.78;;;2.18;63.20
20656;BME280;10487;53.320;8.672;2023-04-01T20:37:08;100849.03;;;2.18;63.24
20656;BME280;10487;53.320;8.672;2023-04-01T20:40:26;100858.72;;;2.18;63.28
20656;BME280;10487;53.320;8.672;2023-04-01T20:44:03;100868.44;;;2.16;63.32
20656;BME280;10487;53.320;8.672;2023-04-01T20:47:41;100875.59;;;2.12;63.11
20656;BME280;10487;53.320;8.672;2023-04-01T20:50:51;100881.03;;;2.08;63.17
20656;BME280;10487;53.320;8.672;2023-04-01T20:57:40;100892.69;;;2.01;63.05
20656;BME280;10487;53.320;8.672;2023-04-01T21:01:33;100891.19;;;1.94;63.24
20656;BME280;10487;53.320;8.672;2023-04-01T21:04:42;100902.91;;;1.85;63.03
20656;BME280;10487;53.320;8.672;2023-04-01T21:07:58;100915.34;;;1.80;63.26
20656;BME280;10487;53.320;8.672;2023-04-01T21:11:34;100914.66;;;1.75;63.33
20656;BME280;10487;53.320;8.672;2023-04-01T21:24:58;100942.56;;;1.55;63.19
20656;BME280;10487;53.320;8.672;2023-04-01T21:28:45;100948.88;;;1.49;63.21
20656;BME280;10487;53.320;8.672;2023-04-01T21:38:51;100978.31;;;1.34;63.09
20656;BME280;10487;53.320;8.672;2023-04-01T21:52:22;101008.72;;;1.15;62.90
20656;BME280;10487;53.320;8.672;2023-04-01T22:08:58;101040.13;;;0.90;62.70
20656;BME280;10487;53.320;8.672;2023-04-01T22:12:10;101039.41;;;0.85;62.70
20656;BME280;10487;53.320;8.672;2023-04-01T22:19:29;101057.91;;;0.79;62.82
20656;BME280;10487;53.320;8.672;2023-04-01T22:26:07;101079.19;;;0.70;62.57
20656;BME280;10487;53.320;8.672;2023-04-01T22:29:34;101080.22;;;0.64;62.58
20656;BME280;10487;53.320;8.672;2023-04-01T22:32:45;101086.50;;;0.59;62.68
20656;BME280;10487;53.320;8.672;2023-04-01T22:36:32;101083.13;;;0.54;62.96
20656;BME280;10487;53.320;8.672;2023-04-01T22:42:45;101099.06;;;0.48;62.62
20656;BME280;10487;53.320;8.672;2023-04-01T22:46:23;101109.63;;;0.45;62.83
20656;BME280;10487;53.320;8.672;2023-04-01T22:49:53;101115.78;;;0.44;62.76
20656;BME280;10487;53.320;8.672;2023-04-01T22:53:08;101122.91;;;0.40;62.87
20656;BME280;10487;53.320;8.672;2023-04-01T22:56:22;101139.59;;;0.38;62.78
20656;BME280;10487;53.320;8.672;2023-04-01T22:59:31;101139.66;;;0.35;62.79
20656;BME280;10487;53.320;8.672;2023-04-01T23:02:39;101146.78;;;0.30;62.73
20656;BME280;10487;53.320;8.672;2023-04-01T23:05:56;101157.34;;;0.27;62.66
20656;BME280;10487;53.320;8.672;2023-04-01T23:09:08;101155.72;;;0.21;63.04
20656;BME280;10487;53.320;8.672;2023-04-01T23:12:13;101163.72;;;0.16;62.82
20656;BME280;10487;53.320;8.672;2023-04-01T23:15:17;101173.47;;;0.11;62.81
20656;BME280;10487;53.320;8.672;2023-04-01T23:18:57;101180.59;;;0.06;62.80
20656;BME280;10487;53.320;8.672;2023-04-01T23:31:37;101200.22;;;-0.11;62.90
20656;BME280;10487;53.320;8.672;2023-04-01T23:34:46;101217.81;;;-0.15;62.82
20656;BME280;10487;53.320;8.672;2023-04-01T23:37:49;101217.00;;;-0.18;62.83
20656;BME280;10487;53.320;8.672;2023-04-01T23:40:53;101217.06;;;-0.20;62.80
20656;BME280;10487;53.320;8.672;2023-04-01T23:43:59;101225.81;;;-0.21;62.84
20656;BME280;10487;53.320;8.672;2023-04-01T23:47:03;101234.59;;;-0.23;62.72
20656;BME280;10487;53.320;8.672;2023-04-01T23:50:22;101246.91;;;-0.25;62.69
20656;BME280;10487;53.320;8.672;2023-04-01T23:53:29;101247.03;;;-0.31;62.87
20656;BME280;10487;53.320;8.672;2023-04-01T23:56:54;101239.28;;;-0.37;62.89
